createdAt,value
2022-10-13T00:03:03.086Z,84.8
2022-10-13T00:08:03.158Z,86.3
2022-10-13T00:13:13.129Z,85.7
2022-10-13T00:18:13.321Z,87.3
2022-10-13T00:23:13.413Z,86.2
2022-10-13T00:29:03.139Z,85.6
2022-10-13T00:34:03.055Z,85.9
2022-10-13T00:39:03.149Z,86.9
2022-10-13T00:44:13.385Z,84.9
2022-10-13T00:50:03.076Z,84.8
2022-10-13T00:55:13.351Z,83.9
2022-10-13T01:00:13.354Z,83.3
2022-10-13T01:06:03.091Z,84.1
2022-10-13T01:11:13.377Z,83.8
2022-10-13T01:17:03.049Z,83.8
2022-10-13T01:22:03.078Z,83.8
2022-10-13T01:27:13.213Z,84.4
2022-10-13T01:32:13.348Z,85.9
2022-10-13T01:37:13.382Z,85
2022-10-13T01:43:03.151Z,84.9
2022-10-13T01:48:03.119Z,84.4
2022-10-13T01:53:13.369Z,85
2022-10-13T01:59:02.843Z,84.6
2022-10-13T02:04:03.059Z,84.5
2022-10-13T02:09:03.107Z,84.8
2022-10-13T02:14:13.369Z,84.8
2022-10-13T02:19:13.367Z,84.1
2022-10-13T02:25:02.800Z,85
2022-10-13T02:30:02.896Z,86.1
2022-10-13T02:35:13.129Z,86.4
2022-10-13T02:40:13.147Z,85.6
2022-10-13T02:46:02.910Z,86.1
2022-10-13T02:51:22.394Z,85
2022-10-13T02:57:02.908Z,85.2
2022-10-13T03:02:02.916Z,85
2022-10-13T03:07:13.132Z,85.2
2022-10-13T03:12:13.191Z,84.7
2022-10-13T03:18:02.883Z,85.3
2022-10-13T03:23:02.898Z,84.4
2022-10-13T03:28:02.938Z,84.9
2022-10-13T03:33:03.081Z,84.9
2022-10-13T03:38:13.358Z,85.5
2022-10-13T03:43:13.345Z,83.9
2022-10-13T03:48:13.392Z,84.8
2022-10-13T03:54:03.080Z,86.5
2022-10-13T03:59:03.064Z,85.2
2022-10-13T04:04:13.344Z,86.1
2022-10-13T04:09:13.396Z,86.2
2022-10-13T04:15:03.077Z,85.3
2022-10-13T04:20:13.140Z,87.5
2022-10-13T04:26:03.088Z,87.8
2022-10-13T04:31:03.109Z,87
2022-10-13T04:36:13.272Z,87.2
2022-10-13T04:41:13.379Z,87.2
2022-10-13T04:46:13.366Z,86.4
2022-10-13T04:52:03.114Z,85.7
2022-10-13T04:57:13.394Z,85.3
2022-10-13T05:03:03.044Z,86.2
2022-10-13T05:08:03.078Z,86.1
2022-10-13T05:13:13.171Z,85
2022-10-13T05:18:13.162Z,85.9
2022-10-13T05:23:13.337Z,83.5
2022-10-13T05:28:13.506Z,81.3
2022-10-13T05:34:03.197Z,81.6
2022-10-13T05:39:13.364Z,83.5
2022-10-13T05:44:17.227Z,84.7
2022-10-13T05:50:03.091Z,84.1
2022-10-13T05:55:13.164Z,84.1
2022-10-13T06:00:13.352Z,84.6
2022-10-13T06:06:02.901Z,85.3
2022-10-13T06:11:02.904Z,84.7
2022-10-13T06:16:03.151Z,86.1
2022-10-13T06:21:13.412Z,86
2022-10-13T06:27:02.901Z,86.7
2022-10-13T06:32:13.350Z,85.4
2022-10-13T06:38:03.145Z,86.4
2022-10-13T06:43:13.350Z,86.6
2022-10-13T06:49:03.069Z,85.7
2022-10-13T06:54:03.123Z,85.5
2022-10-13T06:59:13.198Z,84.2
2022-10-13T07:04:21.592Z,84.2
2022-10-13T07:09:23.502Z,83.8
2022-10-13T07:15:02.894Z,82.4
2022-10-13T07:20:13.156Z,83.8
2022-10-13T07:25:13.407Z,81.5
2022-10-13T07:30:13.404Z,81.5
2022-10-13T07:36:03.129Z,78.2
2022-10-13T07:41:13.397Z,78.1
2022-10-13T07:47:03.055Z,78
2022-10-13T07:52:03.057Z,77.8
2022-10-13T07:57:03.105Z,76.1
2022-10-13T08:02:13.348Z,76
2022-10-13T08:07:13.383Z,74.6
2022-10-13T08:13:03.074Z,74.5
2022-10-13T08:18:03.107Z,74.3
2022-10-13T08:23:13.359Z,74.9
2022-10-13T08:29:20.792Z,75.7
2022-10-13T08:34:02.898Z,75.6
2022-10-13T08:39:13.133Z,74.8
2022-10-13T08:50:13.191Z,73.8
2022-10-13T08:55:13.183Z,74
2022-10-13T09:01:02.971Z,71.8
2022-10-13T09:06:13.163Z,71.8
2022-10-13T09:11:13.172Z,70.6
2022-10-13T09:16:13.232Z,71.3
2022-10-13T09:22:02.901Z,72.2
2022-10-13T09:27:13.133Z,69.1
2022-10-13T09:32:13.197Z,69.5
2022-10-13T09:37:13.202Z,69.2
2022-10-13T09:42:16.646Z,69
2022-10-13T09:48:03.134Z,69.6
2022-10-13T09:53:03.096Z,67.9
2022-10-13T09:58:13.352Z,67.8
2022-10-13T10:03:13.485Z,70
2022-10-13T10:09:04.079Z,71.5
2022-10-13T10:14:03.057Z,70.8
2022-10-13T10:19:03.119Z,71.1
2022-10-13T10:24:13.362Z,71.7
2022-10-13T10:29:13.409Z,72.2
2022-10-13T10:35:03.211Z,71.5
2022-10-13T10:40:13.374Z,70.6
2022-10-13T10:46:02.908Z,70.6
2022-10-13T10:51:03.132Z,69.3
2022-10-13T10:56:13.156Z,67.9
2022-10-13T11:01:22.685Z,68
2022-10-13T11:07:02.918Z,69.4
2022-10-13T11:12:03.083Z,68.6
2022-10-13T11:17:13.179Z,68.3
2022-10-13T11:23:03.122Z,68.1
2022-10-13T11:28:13.440Z,67.8
2022-10-13T11:34:03.160Z,67.2
2022-10-13T11:39:13.208Z,66.9
2022-10-13T11:44:13.362Z,66.5
2022-10-13T11:49:13.947Z,66.1
2022-10-13T11:55:02.913Z,66.3
2022-10-13T12:00:03.003Z,65.4
2022-10-13T12:05:13.397Z,64.6
2022-10-13T12:10:13.836Z,64.2
2022-10-13T12:16:03.457Z,64.5
2022-10-13T12:21:13.397Z,64.5
2022-10-13T12:26:13.638Z,64.7
2022-10-13T12:32:03.151Z,64.9
2022-10-13T12:37:13.349Z,65.4
2022-10-13T12:42:13.438Z,68.3
2022-10-13T12:48:03.138Z,70.3
2022-10-13T12:53:03.123Z,71.4
2022-10-13T12:58:03.397Z,70.1
2022-10-13T13:03:13.390Z,72.1
2022-10-13T13:08:13.426Z,72.1
2022-10-13T13:14:03.105Z,72.4
2022-10-13T13:19:03.122Z,72.5
2022-10-13T13:24:28.306Z,73.6
2022-10-13T13:29:13.196Z,74.7
2022-10-13T13:34:13.212Z,75
2022-10-13T13:39:13.390Z,73.2
2022-10-13T13:45:03.207Z,71.2
2022-10-13T13:50:03.247Z,72.4
2022-10-13T13:55:13.390Z,71.6
2022-10-13T14:01:03.125Z,69.5
2022-10-13T14:06:13.397Z,70.7
2022-10-13T14:12:03.142Z,70.5
2022-10-13T14:17:13.470Z,71.6
2022-10-13T14:23:02.922Z,72.9
2022-10-13T14:28:03.171Z,73.6
2022-10-13T14:33:13.205Z,72.8
2022-10-13T14:38:13.437Z,73.3
2022-10-13T14:44:02.920Z,72.9
2022-10-13T14:49:03.240Z,72.5
2022-10-13T14:54:13.166Z,73.8
2022-10-13T14:59:13.246Z,74.4
2022-10-13T15:04:13.258Z,75.9
2022-10-13T15:09:33.389Z,76
2022-10-13T15:15:02.997Z,77.1
2022-10-13T15:20:13.326Z,77.1
2022-10-13T15:25:21.612Z,79.1
2022-10-13T15:31:02.903Z,79.4
2022-10-13T15:36:02.964Z,80.9
2022-10-13T15:41:13.233Z,81.2
2022-10-13T15:47:08.288Z,81.7
2022-10-13T15:52:13.324Z,80.4
2022-10-13T15:57:13.277Z,81.9
2022-10-13T16:02:13.319Z,83
2022-10-13T16:08:03.230Z,83.1
2022-10-13T16:13:13.447Z,83.9
2022-10-13T16:19:02.931Z,84.3
2022-10-13T16:24:02.967Z,84.4
2022-10-13T16:29:02.987Z,85.6
2022-10-13T16:34:03.115Z,85.9
2022-10-13T16:39:03.230Z,85.5
2022-10-13T16:44:13.218Z,85.6
2022-10-13T16:49:13.438Z,85.2
2022-10-13T16:54:13.453Z,85.4
2022-10-13T17:00:03.159Z,85.6
2022-10-13T17:05:13.487Z,86.6
2022-10-13T17:11:03.126Z,84.1
2022-10-13T17:16:03.165Z,85.8
2022-10-13T17:21:03.150Z,86.3
2022-10-13T17:26:03.221Z,85.6
2022-10-13T17:31:13.261Z,86.6
2022-10-13T17:36:13.414Z,85.8
2022-10-13T17:42:03.059Z,85
2022-10-13T17:47:03.164Z,85
2022-10-13T17:52:13.232Z,85
2022-10-13T17:57:13.378Z,85.5
2022-10-13T18:02:13.562Z,84.5
2022-10-13T18:08:03.162Z,85.6
2022-10-13T18:13:13.448Z,85.4
2022-10-13T18:19:03.150Z,85.3
2022-10-13T18:24:03.234Z,85.9
2022-10-13T18:29:13.470Z,86.3
2022-10-13T18:35:03.161Z,87.8
2022-10-13T18:40:13.439Z,87.9
2022-10-13T18:46:03.159Z,88.6
2022-10-13T18:51:13.459Z,88.9
2022-10-13T18:57:03.149Z,88.5
2022-10-13T19:02:03.232Z,89.1
2022-10-13T19:07:13.251Z,87.9
2022-10-13T19:12:13.411Z,88.2
2022-10-13T19:17:13.430Z,88.1
2022-10-13T19:22:13.499Z,87.9
2022-10-13T19:28:03.172Z,87.2
2022-10-13T19:33:03.170Z,88
2022-10-13T19:38:13.457Z,89.6
2022-10-13T19:43:13.512Z,88.3
2022-10-13T19:49:03.139Z,87.5
2022-10-13T19:54:03.151Z,87.4
2022-10-13T19:59:03.200Z,87.3
2022-10-13T20:04:13.463Z,87.4
2022-10-13T20:10:02.939Z,86
2022-10-13T20:15:03.189Z,86.2
2022-10-13T20:20:13.451Z,85.9
2022-10-13T20:26:03.047Z,86.9
2022-10-13T20:31:03.177Z,86.4
2022-10-13T20:36:04.329Z,86.5
2022-10-13T20:41:13.474Z,86.6
2022-10-13T20:47:03.028Z,87.1
2022-10-13T20:52:13.457Z,86
2022-10-13T20:57:13.471Z,85.8
2022-10-13T21:03:03.002Z,86.1
2022-10-13T21:08:13.506Z,86.8
2022-10-13T21:14:03.004Z,85.9
2022-10-13T21:19:13.311Z,86.3
2022-10-13T21:25:02.936Z,85.8
2022-10-13T21:30:02.997Z,85.6
2022-10-13T21:35:13.276Z,84.8
2022-10-13T21:40:13.416Z,84.6
2022-10-13T21:46:02.986Z,85.4
2022-10-13T21:51:13.318Z,85.2
2022-10-13T21:56:13.345Z,85.3
2022-10-13T22:02:02.952Z,85.5
2022-10-13T22:07:03.042Z,85.9
2022-10-13T22:12:13.215Z,86.9
2022-10-13T22:17:13.241Z,85.6
2022-10-13T22:23:03.228Z,84.3
2022-10-13T22:28:13.358Z,85.3
2022-10-13T22:34:03.204Z,87.1
2022-10-13T22:39:03.237Z,85.8
2022-10-13T22:44:13.467Z,86.4
2022-10-13T22:50:03.203Z,87
2022-10-13T22:55:03.219Z,86.7
2022-10-13T23:00:13.453Z,87
2022-10-13T23:05:13.726Z,86.8
2022-10-13T23:11:03.196Z,87.5
2022-10-13T23:16:03.275Z,88.7
2022-10-13T23:21:13.245Z,89.8
2022-10-13T23:26:13.501Z,89.7
2022-10-13T23:32:07.515Z,87
2022-10-13T23:37:13.453Z,88.5
2022-10-13T23:42:13.648Z,88.4
2022-10-13T23:48:03.194Z,88.1
2022-10-13T23:53:13.474Z,88.8
2022-10-13T23:59:03.065Z,88.3
